Schedule Details

Flight Number: CPX825
Departure: Grantley Adams International Airport (TBPB) at N/A
Arrival: RAF Ascension Island (FHAW) at N/A
Route: BGI ROVBA ASALI UL695 EGIMI UL695 FHAW


Current Weather Information
TBPB 180600Z 08015KT 9999 FEW022 25/19 Q1016 NOSIG
No METAR available for FHAW.

Route Map